createdAt,value
2019-03-04T00:01:14.697Z,4.90
2019-03-04T00:03:42.220Z,5.80
2019-03-04T00:06:09.678Z,5.30
2019-03-04T00:08:37.129Z,5.10
2019-03-04T00:11:04.677Z,4.63
2019-03-04T00:13:32.173Z,5.10
2019-03-04T00:15:59.589Z,5.23
2019-03-04T00:18:26.973Z,5.53
2019-03-04T00:20:54.357Z,4.93
2019-03-04T00:23:21.704Z,4.50
2019-03-04T00:25:49.058Z,5.37
2019-03-04T00:28:16.558Z,4.83
2019-03-04T00:30:43.999Z,4.67
2019-03-04T00:33:11.367Z,4.03
2019-03-04T00:35:38.872Z,3.87
2019-03-04T00:38:06.201Z,3.97
2019-03-04T00:40:33.683Z,4.67
2019-03-04T00:43:01.092Z,3.50
2019-03-04T00:45:28.497Z,3.70
2019-03-04T00:47:56.049Z,4.17
2019-03-04T00:50:23.401Z,4.10
2019-03-04T00:52:50.791Z,3.60
2019-03-04T00:55:18.341Z,3.80
2019-03-04T00:57:45.703Z,3.60
2019-03-04T01:00:21.698Z,3.90
2019-03-04T01:02:49.215Z,3.67
2019-03-04T01:05:16.604Z,3.80
2019-03-04T01:07:44.041Z,4.27
2019-03-04T01:10:12.490Z,3.77
2019-03-04T01:12:39.944Z,4.27
2019-03-04T01:15:08.985Z,4.33
2019-03-04T01:17:36.389Z,3.70
2019-03-04T01:20:05.539Z,3.33
2019-03-04T01:22:33.061Z,3.90
2019-03-04T01:25:00.582Z,4.60
2019-03-04T01:27:27.901Z,3.47
2019-03-04T01:29:55.327Z,3.80
2019-03-04T01:32:22.750Z,3.30
2019-03-04T01:34:50.187Z,3.63
2019-03-04T01:37:17.527Z,3.37
2019-03-04T01:39:44.917Z,2.30
2019-03-04T01:42:13.969Z,2.60
2019-03-04T01:44:41.292Z,2.40
2019-03-04T01:47:08.826Z,2.30
2019-03-04T01:49:38.002Z,2.60
2019-03-04T01:52:05.419Z,2.90
2019-03-04T01:54:32.761Z,2.80
2019-03-04T01:57:00.223Z,2.47
2019-03-04T01:59:27.691Z,2.77
2019-03-04T02:01:55.207Z,2.57
2019-03-04T02:04:22.602Z,2.87
2019-03-04T02:06:50.099Z,2.40
2019-03-04T02:09:17.595Z,2.10
2019-03-04T02:11:44.984Z,2.40
2019-03-04T02:14:12.342Z,2.50
2019-03-04T02:16:39.906Z,2.47
2019-03-04T02:19:07.296Z,2.27
2019-03-04T02:21:34.672Z,2.17
2019-03-04T02:24:21.890Z,2.27
2019-03-04T02:26:49.320Z,2.53
2019-03-04T02:29:16.695Z,2.00
2019-03-04T02:31:44.092Z,2.07
2019-03-04T02:34:11.596Z,2.57
2019-03-04T02:36:39.124Z,2.03
2019-03-04T02:39:06.568Z,2.20
2019-03-04T02:41:33.996Z,2.47
2019-03-04T02:44:01.415Z,1.87
2019-03-04T02:46:28.833Z,2.30
2019-03-04T02:48:56.309Z,2.13
2019-03-04T02:51:23.616Z,2.10
2019-03-04T02:53:51.002Z,2.50
2019-03-04T02:56:18.432Z,1.57
2019-03-04T02:58:45.818Z,2.13
2019-03-04T03:01:13.924Z,1.50
2019-03-04T03:03:41.431Z,2.00
2019-03-04T03:06:08.804Z,2.20
2019-03-04T03:08:36.298Z,2.37
2019-03-04T03:11:03.687Z,1.77
2019-03-04T03:13:31.071Z,2.13
2019-03-04T03:15:58.495Z,2.07
2019-03-04T03:18:25.824Z,2.10
2019-03-04T03:20:53.325Z,2.03
2019-03-04T03:23:20.741Z,1.70
2019-03-04T03:25:48.112Z,2.30
2019-03-04T03:28:15.534Z,2.37
2019-03-04T03:30:42.952Z,1.90
2019-03-04T03:33:10.461Z,2.90
2019-03-04T03:35:38.148Z,2.13
2019-03-04T03:38:05.552Z,2.37
2019-03-04T03:40:32.972Z,2.40
2019-03-04T03:43:00.363Z,2.80
2019-03-04T03:45:27.771Z,2.70
2019-03-04T03:47:55.200Z,2.40
2019-03-04T03:50:22.548Z,3.30
2019-03-04T03:52:51.159Z,2.33
2019-03-04T03:55:18.579Z,2.30
2019-03-04T03:57:46.115Z,2.73
2019-03-04T04:00:15.078Z,3.20
2019-03-04T04:02:42.494Z,2.67
2019-03-04T04:05:09.897Z,2.37
2019-03-04T04:07:38.882Z,2.83
2019-03-04T04:10:08.081Z,2.53
2019-03-04T04:12:35.392Z,3.30
2019-03-04T04:15:03.011Z,3.10
2019-03-04T04:17:30.391Z,3.40
2019-03-04T04:19:57.764Z,2.90
2019-03-04T04:22:25.223Z,2.40
2019-03-04T04:24:52.620Z,3.23
2019-03-04T04:27:19.979Z,2.70
2019-03-04T04:29:47.295Z,2.77
2019-03-04T04:32:14.659Z,2.40
2019-03-04T04:34:42.039Z,2.50
2019-03-04T04:37:09.466Z,2.30
2019-03-04T04:39:36.785Z,2.20
2019-03-04T04:42:04.171Z,2.70
2019-03-04T04:44:31.521Z,3.10
2019-03-04T04:46:58.932Z,3.10
2019-03-04T04:49:26.445Z,3.03
2019-03-04T04:51:53.847Z,2.70
2019-03-04T04:54:21.403Z,2.60
2019-03-04T04:56:49.027Z,2.43
2019-03-04T04:59:16.396Z,2.00
2019-03-04T05:01:43.738Z,1.97
2019-03-04T05:04:11.153Z,2.30
2019-03-04T05:06:38.493Z,2.00
2019-03-04T05:09:05.895Z,2.47
2019-03-04T05:11:33.324Z,2.90
2019-03-04T05:14:00.719Z,3.17
2019-03-04T05:16:28.147Z,3.50
2019-03-04T05:18:55.458Z,3.10
2019-03-04T05:21:22.819Z,3.30
2019-03-04T05:23:50.341Z,2.77
2019-03-04T05:26:17.757Z,3.47
2019-03-04T05:28:45.207Z,3.00
2019-03-04T05:31:12.605Z,3.03
2019-03-04T05:33:40.097Z,3.07
2019-03-04T05:36:07.457Z,3.10
2019-03-04T05:38:34.876Z,3.57
2019-03-04T05:41:02.724Z,4.60
2019-03-04T05:43:30.156Z,4.60
2019-03-04T05:45:57.531Z,4.27
2019-03-04T05:48:25.028Z,5.20
2019-03-04T05:50:52.475Z,5.37
2019-03-04T05:53:19.890Z,5.50
2019-03-04T05:55:47.327Z,5.80
2019-03-04T05:58:14.731Z,6.00
2019-03-04T06:00:43.767Z,5.60
2019-03-04T06:03:12.790Z,6.70
2019-03-04T06:05:40.203Z,6.63
2019-03-04T06:08:11.999Z,6.97
2019-03-04T06:10:39.719Z,7.50
2019-03-04T06:13:07.439Z,6.83
2019-03-04T06:15:34.816Z,6.83
2019-03-04T06:18:02.427Z,7.73
2019-03-04T06:20:29.853Z,7.97
2019-03-04T06:22:57.317Z,7.47
2019-03-04T06:25:25.670Z,6.63
2019-03-04T06:27:53.099Z,6.47
2019-03-04T06:30:22.124Z,6.63
2019-03-04T06:32:49.534Z,7.10
2019-03-04T06:35:17.308Z,7.80
2019-03-04T06:37:44.669Z,7.90
2019-03-04T06:40:13.283Z,8.10
2019-03-04T06:42:40.795Z,7.77
2019-03-04T06:45:09.431Z,7.67
2019-03-04T06:47:36.819Z,8.00
2019-03-04T06:50:05.792Z,6.90
2019-03-04T06:52:33.363Z,6.60
2019-03-04T06:55:02.352Z,7.00
2019-03-04T06:57:29.922Z,8.23
2019-03-04T06:59:59.003Z,8.77
2019-03-04T07:02:28.271Z,8.50
2019-03-04T07:05:06.267Z,7.80
2019-03-04T07:07:33.675Z,6.73
2019-03-04T07:10:01.181Z,6.97
2019-03-04T07:12:28.659Z,7.70
2019-03-04T07:14:56.143Z,7.93
2019-03-04T07:17:23.638Z,7.33
2019-03-04T07:20:07.564Z,7.90
2019-03-04T07:22:37.394Z,7.53
2019-03-04T07:25:06.986Z,7.60
2019-03-04T07:27:34.415Z,6.60
2019-03-04T07:30:01.913Z,6.73
2019-03-04T07:32:31.560Z,6.43
2019-03-04T07:35:01.726Z,7.20
2019-03-04T07:37:30.045Z,7.10
2019-03-04T07:39:57.522Z,6.50
2019-03-04T07:42:25.095Z,7.57
2019-03-04T07:44:52.584Z,7.33
2019-03-04T07:47:21.691Z,5.83
2019-03-04T07:49:51.489Z,6.90
2019-03-04T07:52:24.781Z,6.67
2019-03-04T07:54:52.263Z,6.40
2019-03-04T07:57:19.723Z,6.83
2019-03-04T07:59:47.131Z,6.83
2019-03-04T08:02:14.815Z,7.13
2019-03-04T08:04:43.580Z,5.57
2019-03-04T08:07:12.732Z,5.60
2019-03-04T08:09:50.934Z,5.53
2019-03-04T08:12:20.118Z,4.73
2019-03-04T08:14:47.763Z,5.00
2019-03-04T08:17:15.266Z,4.83
2019-03-04T08:19:43.352Z,3.70
2019-03-04T08:22:10.771Z,3.70
2019-03-04T08:24:38.252Z,5.00
2019-03-04T08:27:08.733Z,3.23
2019-03-04T08:29:37.631Z,3.20
2019-03-04T08:32:05.190Z,3.17
2019-03-04T08:34:32.592Z,3.10
2019-03-04T08:37:00.186Z,3.77
2019-03-04T08:39:32.276Z,3.93
2019-03-04T08:42:01.585Z,3.73
2019-03-04T08:44:31.053Z,3.77
2019-03-04T08:46:58.125Z,3.97
2019-03-04T08:49:25.680Z,5.97
2019-03-04T08:51:53.422Z,3.97
2019-03-04T08:54:21.538Z,3.20
2019-03-04T08:56:49.146Z,3.80
2019-03-04T08:59:16.613Z,3.90
2019-03-04T09:01:43.929Z,3.80
2019-03-04T09:04:11.441Z,2.87
2019-03-04T09:06:38.836Z,3.37
2019-03-04T09:09:06.734Z,3.40
2019-03-04T09:11:34.260Z,2.50
2019-03-04T09:14:02.713Z,2.60
2019-03-04T09:16:30.200Z,2.97
2019-03-04T09:18:57.632Z,3.33
2019-03-04T09:21:26.318Z,2.80
2019-03-04T09:23:53.779Z,2.83
2019-03-04T09:26:22.525Z,2.93
2019-03-04T09:28:50.146Z,3.47
2019-03-04T09:31:17.641Z,3.37
2019-03-04T09:33:45.075Z,2.67
2019-03-04T09:36:12.489Z,2.80
2019-03-04T09:38:41.349Z,1.90
2019-03-04T09:41:08.836Z,2.17
2019-03-04T09:43:36.407Z,2.00
2019-03-04T09:46:03.958Z,2.00
2019-03-04T09:48:31.353Z,2.70
2019-03-04T09:51:01.217Z,3.27
2019-03-04T09:53:39.119Z,2.10
2019-03-04T09:56:00.894Z,2.60
2019-03-04T09:58:28.307Z,2.10
2019-03-04T10:00:58.657Z,1.90
2019-03-04T10:03:27.831Z,2.10
2019-03-04T10:06:15.199Z,2.00
2019-03-04T10:09:00.432Z,2.20
2019-03-04T10:11:29.641Z,2.40
2019-03-04T10:14:07.789Z,2.73
2019-03-04T10:16:45.703Z,3.20
2019-03-04T10:19:23.850Z,3.27
2019-03-04T10:21:58.692Z,2.87
2019-03-04T10:24:33.778Z,2.57
2019-03-04T10:27:03.941Z,2.60
2019-03-04T10:29:32.911Z,2.70
2019-03-04T10:32:04.845Z,2.20
2019-03-04T10:34:33.917Z,2.90
2019-03-04T10:37:21.254Z,3.17
2019-03-04T10:39:50.305Z,2.90
2019-03-04T10:42:22.339Z,3.03
2019-03-04T10:44:56.907Z,2.90
2019-03-04T10:47:25.721Z,2.67
2019-03-04T10:49:53.238Z,2.57
2019-03-04T10:52:21.071Z,2.80
2019-03-04T10:54:48.437Z,2.30
2019-03-04T10:57:17.489Z,2.97
2019-03-04T10:59:44.982Z,3.10
2019-03-04T11:02:12.422Z,2.63
2019-03-04T11:04:39.936Z,1.90
2019-03-04T11:07:07.434Z,2.90
2019-03-04T11:09:34.922Z,1.87
2019-03-04T11:12:02.418Z,1.70
2019-03-04T11:14:29.765Z,1.63
2019-03-04T11:16:57.197Z,1.23
2019-03-04T11:19:24.769Z,1.60
2019-03-04T11:21:57.235Z,1.70
2019-03-04T11:24:28.903Z,1.60
2019-03-04T11:27:03.317Z,1.50
2019-03-04T11:29:33.265Z,1.87
2019-03-04T11:32:02.282Z,1.90
2019-03-04T11:34:34.685Z,1.70
2019-03-04T11:37:02.012Z,1.30
2019-03-04T11:39:47.583Z,2.37
2019-03-04T11:42:15.042Z,2.17
2019-03-04T11:44:44.040Z,2.13
2019-03-04T11:47:11.521Z,2.17
2019-03-04T11:49:39.125Z,1.73
2019-03-04T11:52:06.948Z,2.27
2019-03-04T11:54:35.509Z,2.03
2019-03-04T11:57:03.388Z,2.47
2019-03-04T11:59:30.811Z,2.20
2019-03-04T12:01:58.966Z,1.87
2019-03-04T12:04:26.447Z,2.10
2019-03-04T12:06:53.908Z,2.00
2019-03-04T12:09:21.338Z,2.30
2019-03-04T12:11:48.683Z,2.07
2019-03-04T12:14:17.014Z,2.37
2019-03-04T12:16:44.493Z,2.00
2019-03-04T12:19:11.999Z,3.17
2019-03-04T12:21:39.497Z,4.23
2019-03-04T12:24:07.299Z,3.87
2019-03-04T12:26:34.757Z,2.47
2019-03-04T12:29:02.172Z,2.40
2019-03-04T12:31:31.240Z,2.07
2019-03-04T12:33:58.679Z,1.97
2019-03-04T12:36:26.426Z,2.37
2019-03-04T12:38:53.967Z,2.40
2019-03-04T12:41:21.417Z,2.00
2019-03-04T12:52:06.602Z,3.00
2019-03-04T12:54:34.077Z,2.20
2019-03-04T12:57:03.340Z,2.57
2019-03-04T12:59:31.406Z,3.30
2019-03-04T13:02:00.647Z,2.83
2019-03-04T13:04:28.122Z,3.90
2019-03-04T13:06:55.612Z,2.87
2019-03-04T13:09:23.026Z,3.80
2019-03-04T13:11:50.602Z,4.17
2019-03-04T13:14:18.064Z,3.60
2019-03-04T13:16:45.594Z,4.00
2019-03-04T13:19:13.140Z,3.87
2019-03-04T13:21:40.672Z,3.33
2019-03-04T13:24:08.178Z,3.30
2019-03-04T13:26:35.622Z,3.40
2019-03-04T13:29:04.973Z,4.10
2019-03-04T13:31:32.345Z,3.77
2019-03-04T13:33:59.838Z,3.33
2019-03-04T13:36:27.380Z,3.70
2019-03-04T13:38:54.967Z,4.83
2019-03-04T13:41:22.393Z,4.40
2019-03-04T13:43:49.908Z,4.43
2019-03-04T13:46:17.289Z,4.60
2019-03-04T13:48:44.692Z,4.27
2019-03-04T13:51:13.682Z,5.20
2019-03-04T13:53:41.159Z,5.57
2019-03-04T13:56:08.560Z,6.47
2019-03-04T13:58:35.999Z,7.73
2019-03-04T14:01:03.452Z,8.83
2019-03-04T14:03:33.694Z,8.50
2019-03-04T14:06:01.178Z,7.13
2019-03-04T14:08:28.636Z,8.17
2019-03-04T14:10:56.116Z,9.67
2019-03-04T14:13:23.454Z,10.20
2019-03-04T14:15:51.995Z,9.53
2019-03-04T14:18:19.342Z,9.00
2019-03-04T14:20:46.828Z,8.27
2019-03-04T14:23:14.370Z,7.07
2019-03-04T14:25:42.796Z,6.80
2019-03-04T14:28:10.247Z,5.83
2019-03-04T14:30:37.580Z,5.70
2019-03-04T14:33:05.579Z,6.60
2019-03-04T14:35:32.992Z,6.33
2019-03-04T14:38:00.488Z,6.60
2019-03-04T14:40:27.915Z,8.70
2019-03-04T14:42:55.465Z,9.43
2019-03-04T14:45:23.988Z,9.90
2019-03-04T14:47:51.509Z,12.23
2019-03-04T14:50:19.428Z,12.90
2019-03-04T14:52:46.970Z,14.77
2019-03-04T14:55:18.983Z,15.40
2019-03-04T14:57:46.511Z,14.90
2019-03-04T15:00:15.393Z,18.07
2019-03-04T15:02:42.808Z,17.17
2019-03-04T15:05:10.187Z,20.07
2019-03-04T15:07:37.542Z,20.90
2019-03-04T15:10:06.427Z,21.83
2019-03-04T15:12:33.828Z,23.13
2019-03-04T15:15:01.335Z,21.13
2019-03-04T15:17:29.017Z,19.97
2019-03-04T15:19:56.419Z,19.97
2019-03-04T15:22:23.741Z,16.83
2019-03-04T15:24:51.261Z,15.33
2019-03-04T15:27:18.659Z,16.13
2019-03-04T15:29:46.070Z,17.13
2019-03-04T15:32:13.609Z,19.03
2019-03-04T15:34:41.119Z,18.90
2019-03-04T15:37:08.581Z,18.20
2019-03-04T15:39:36.011Z,16.03
2019-03-04T15:42:03.409Z,13.23
2019-03-04T15:44:32.644Z,11.33
2019-03-04T15:46:59.790Z,10.20
2019-03-04T15:49:27.213Z,8.27
2019-03-04T15:51:54.636Z,7.87
2019-03-04T15:54:24.371Z,8.23
2019-03-04T15:56:53.347Z,9.47
2019-03-04T15:59:20.821Z,9.43
2019-03-04T16:01:48.279Z,9.90
2019-03-04T16:04:15.784Z,9.23
2019-03-04T16:06:43.264Z,10.93
2019-03-04T16:09:12.029Z,10.43
2019-03-04T16:11:39.537Z,12.13
2019-03-04T16:14:06.959Z,11.93
2019-03-04T16:16:34.451Z,12.93
2019-03-04T16:19:01.983Z,12.90
2019-03-04T16:21:29.445Z,12.30
2019-03-04T16:23:56.882Z,14.47
2019-03-04T16:26:24.397Z,15.17
2019-03-04T16:28:51.884Z,15.40
2019-03-04T16:31:19.405Z,14.83
2019-03-04T16:33:47.037Z,14.13
2019-03-04T16:36:16.019Z,14.70
2019-03-04T16:38:43.484Z,14.77
2019-03-04T16:41:10.810Z,14.27
2019-03-04T16:43:38.284Z,15.43
2019-03-04T16:51:24.899Z,14.07
2019-03-04T16:53:52.304Z,15.63
2019-03-04T16:56:19.707Z,15.53
2019-03-04T16:58:47.042Z,15.90
2019-03-04T17:01:14.375Z,17.53
2019-03-04T17:03:41.737Z,17.00
2019-03-04T17:06:09.153Z,17.43
2019-03-04T17:08:36.468Z,16.00
2019-03-04T17:11:03.859Z,15.20
2019-03-04T17:13:31.290Z,15.50
2019-03-04T17:15:58.783Z,15.23
2019-03-04T17:18:26.140Z,16.43
2019-03-04T17:20:53.571Z,15.33
2019-03-04T17:23:20.982Z,14.33
2019-03-04T17:25:48.315Z,15.43
2019-03-04T17:28:19.596Z,16.87
2019-03-04T17:30:46.914Z,16.17
2019-03-04T17:33:14.308Z,17.70
2019-03-04T17:35:41.707Z,17.20
2019-03-04T17:38:09.359Z,20.77
2019-03-04T17:40:37.852Z,21.23
2019-03-04T17:43:05.314Z,19.60
2019-03-04T17:45:32.825Z,20.20
2019-03-04T17:48:03.438Z,22.80
2019-03-04T17:50:31.955Z,23.63
2019-03-04T17:52:59.438Z,22.13
2019-03-04T17:55:26.968Z,18.77
2019-03-04T17:57:54.417Z,20.37
2019-03-04T18:00:21.900Z,18.53
2019-03-04T18:02:49.344Z,21.00
2019-03-04T18:05:16.715Z,18.77
2019-03-04T18:07:44.169Z,17.07
2019-03-04T18:10:12.831Z,19.00
2019-03-04T18:12:40.246Z,17.53
2019-03-04T18:15:11.961Z,9.40
2019-03-04T18:17:40.521Z,8.60
2019-03-04T18:20:09.647Z,6.10
2019-03-04T18:22:37.001Z,6.00
2019-03-04T18:25:19.085Z,5.70
2019-03-04T18:27:47.877Z,6.10
2019-03-04T18:30:26.058Z,5.57
2019-03-04T18:32:57.764Z,7.80
2019-03-04T18:35:32.813Z,5.10
2019-03-04T18:38:13.892Z,5.27
2019-03-04T18:40:47.154Z,4.47
2019-03-04T18:43:26.546Z,6.07
2019-03-04T18:46:12.142Z,4.23
2019-03-04T18:48:56.477Z,5.50
2019-03-04T18:51:23.987Z,6.60
2019-03-04T18:53:51.994Z,7.27
2019-03-04T18:56:22.187Z,4.30
2019-03-04T18:58:48.437Z,4.43
2019-03-04T19:01:15.899Z,3.90
2019-03-04T19:03:43.361Z,4.77
2019-03-04T19:06:11.048Z,4.97
2019-03-04T19:08:38.492Z,5.97
2019-03-04T19:11:07.469Z,7.27
2019-03-04T19:13:34.900Z,4.73
2019-03-04T19:16:03.932Z,3.90
2019-03-04T19:18:31.300Z,7.83
2019-03-04T19:20:58.627Z,6.13
2019-03-04T19:23:27.177Z,5.33
2019-03-04T19:25:56.244Z,4.60
2019-03-04T19:28:26.019Z,3.30
2019-03-04T19:30:55.070Z,3.17
2019-03-04T19:33:22.558Z,3.43
2019-03-04T19:35:49.899Z,1.70
2019-03-04T19:38:17.248Z,1.50
2019-03-04T19:40:44.824Z,1.90
2019-03-04T19:43:12.232Z,2.27
2019-03-04T19:45:39.586Z,1.77
2019-03-04T19:48:07.032Z,1.70
2019-03-04T19:50:34.456Z,1.90
2019-03-04T19:53:01.881Z,1.80
2019-03-04T19:55:30.974Z,1.70
2019-03-04T19:57:58.511Z,1.00
2019-03-04T20:00:38.024Z,1.20
2019-03-04T20:03:06.149Z,1.40
2019-03-04T20:05:35.138Z,1.97
2019-03-04T20:08:04.240Z,2.47
2019-03-04T20:10:31.717Z,2.40
2019-03-04T20:12:59.352Z,3.20
2019-03-04T20:15:33.818Z,2.73
2019-03-04T20:18:02.869Z,3.23
2019-03-04T20:20:30.358Z,1.33
2019-03-04T20:22:57.656Z,1.67
2019-03-04T20:25:25.727Z,2.27
2019-03-04T20:27:55.568Z,2.43
2019-03-04T20:30:25.508Z,2.30
2019-03-04T20:32:54.287Z,1.53
2019-03-04T20:35:21.729Z,1.50
2019-03-04T20:37:53.677Z,1.77
2019-03-04T20:40:22.697Z,1.47
2019-03-04T20:42:50.165Z,1.67
2019-03-04T20:45:19.196Z,2.43
2019-03-04T20:47:46.762Z,2.43
2019-03-04T20:50:18.106Z,2.43
2019-03-04T20:52:45.435Z,3.17
2019-03-04T20:55:12.827Z,3.57
2019-03-04T20:57:40.196Z,3.30
2019-03-04T21:00:18.637Z,3.60
2019-03-04T21:02:46.122Z,3.23
2019-03-04T21:05:15.182Z,2.30
2019-03-04T21:07:42.652Z,3.13
2019-03-04T21:10:11.701Z,2.23
2019-03-04T21:12:39.438Z,2.93
2019-03-04T21:15:08.553Z,3.10
2019-03-04T21:17:36.009Z,3.60
2019-03-04T21:20:04.809Z,4.10
2019-03-04T21:22:32.371Z,3.47
2019-03-04T21:24:59.724Z,4.03
2019-03-04T21:27:27.182Z,3.20
2019-03-04T21:29:58.875Z,3.33
2019-03-04T21:32:27.841Z,3.70
2019-03-04T21:34:59.661Z,3.47
2019-03-04T21:37:29.004Z,3.97
2019-03-04T21:40:09.980Z,5.27
2019-03-04T21:42:39.028Z,3.70
2019-03-04T21:45:08.061Z,2.97
2019-03-04T21:47:37.052Z,2.97
2019-03-04T21:50:06.033Z,3.93
2019-03-04T21:52:35.097Z,3.37
2019-03-04T21:55:03.972Z,5.20
2019-03-04T21:57:32.812Z,7.57
2019-03-04T22:00:00.298Z,9.73
2019-03-04T22:02:29.262Z,10.53
2019-03-04T22:04:57.272Z,10.10
2019-03-04T22:07:24.612Z,10.43
2019-03-04T22:09:52.054Z,10.73
2019-03-04T22:12:22.129Z,10.47
2019-03-04T22:14:51.486Z,10.83
2019-03-04T22:17:21.681Z,10.13
2019-03-04T22:19:50.711Z,11.40
2019-03-04T22:22:18.039Z,10.90
2019-03-04T22:24:47.076Z,9.80
2019-03-04T22:27:15.588Z,11.30
2019-03-04T22:29:42.974Z,10.27
2019-03-04T22:32:10.329Z,11.00
2019-03-04T22:34:37.751Z,9.90
2019-03-04T22:37:05.223Z,9.90
2019-03-04T22:39:38.565Z,9.60
2019-03-04T22:42:05.933Z,10.00
2019-03-04T22:44:33.323Z,9.93
2019-03-04T22:47:00.648Z,9.50
2019-03-04T22:49:28.093Z,9.17
2019-03-04T22:51:56.353Z,9.30
2019-03-04T22:54:23.745Z,9.23
2019-03-04T22:56:51.139Z,9.10
2019-03-04T22:59:18.450Z,9.17
2019-03-04T23:01:47.137Z,8.60
2019-03-04T23:04:18.121Z,7.77
2019-03-04T23:06:53.119Z,7.07
2019-03-04T23:09:21.329Z,7.83
2019-03-04T23:11:50.391Z,6.87
2019-03-04T23:14:19.443Z,7.03
2019-03-04T23:16:46.896Z,5.93
2019-03-04T23:19:14.219Z,6.07
2019-03-04T23:21:41.598Z,5.80
2019-03-04T23:24:08.900Z,6.37
2019-03-04T23:26:36.291Z,6.33
2019-03-04T23:29:03.674Z,5.03
2019-03-04T23:31:31.104Z,4.70
2019-03-04T23:33:58.479Z,4.83
2019-03-04T23:36:25.820Z,4.17
2019-03-04T23:38:53.173Z,4.20
2019-03-04T23:41:20.561Z,4.20
2019-03-04T23:43:47.905Z,4.37
2019-03-04T23:46:15.273Z,4.37
2019-03-04T23:48:42.667Z,4.93
2019-03-04T23:51:10.032Z,4.73
2019-03-04T23:53:37.455Z,3.43
2019-03-04T23:56:04.775Z,3.67
2019-03-04T23:58:32.179Z,3.97
